sensor_id;sensor_type;location;lat;lon;timestamp;P1;durP1;ratioP1;P2;durP2;ratioP2
32874;SDS011;40468;42.128;24.750;2022-10-30T00:00:48;14.15;;;6.45;;
32874;SDS011;40468;42.128;24.750;2022-10-30T00:02:22;11.50;;;5.88;;
32874;SDS011;40468;42.128;24.750;2022-10-30T00:03:54;12.10;;;6.05;;
32874;SDS011;40468;42.128;24.750;2022-10-30T00:05:26;9.60;;;5.72;;
32874;SDS011;40468;42.128;24.750;2022-10-30T00:06:57;11.02;;;5.47;;
32874;SDS011;40468;42.128;24.750;2022-10-30T00:08:29;14.05;;;5.80;;
32874;SDS011;40468;42.128;24.750;2022-10-30T00:10:01;9.95;;;5.53;;
32874;SDS011;40468;42.128;24.750;2022-10-30T00:11:32;15.75;;;5.30;;
32874;SDS011;40468;42.128;24.750;2022-10-30T00:13:04;13.70;;;6.45;;
32874;SDS011;40468;42.128;24.750;2022-10-30T00:14:35;13.63;;;5.30;;
32874;SDS011;40468;42.128;24.750;2022-10-30T00:16:07;15.00;;;5.82;;
32874;SDS011;40468;42.128;24.750;2022-10-30T00:17:40;11.13;;;5.20;;
32874;SDS011;40468;42.128;24.750;2022-10-30T00:19:11;11.60;;;5.80;;
32874;SDS011;40468;42.128;24.750;2022-10-30T00:20:43;10.35;;;5.35;;
32874;SDS011;40468;42.128;24.750;2022-10-30T00:22:14;10.68;;;5.13;;
32874;SDS011;40468;42.128;24.750;2022-10-30T00:23:46;13.60;;;5.25;;
32874;SDS011;40468;42.128;24.750;2022-10-30T00:25:18;14.23;;;5.73;;
32874;SDS011;40468;42.128;24.750;2022-10-30T00:26:49;12.10;;;5.53;;
32874;SDS011;40468;42.128;24.750;2022-10-30T00:28:21;11.10;;;5.20;;
32874;SDS011;40468;42.128;24.750;2022-10-30T00:29:53;12.02;;;5.35;;
32874;SDS011;40468;42.128;24.750;2022-10-30T00:31:24;13.52;;;5.20;;
32874;SDS011;40468;42.128;24.750;2022-10-30T00:32:57;9.73;;;5.10;;
32874;SDS011;40468;42.128;24.750;2022-10-30T00:34:29;11.15;;;4.97;;
32874;SDS011;40468;42.128;24.750;2022-10-30T00:36:03;12.07;;;5.05;;
32874;SDS011;40468;42.128;24.750;2022-10-30T00:37:35;9.65;;;4.75;;
32874;SDS011;40468;42.128;24.750;2022-10-30T00:39:06;12.52;;;5.07;;
32874;SDS011;40468;42.128;24.750;2022-10-30T00:40:38;10.30;;;5.90;;
32874;SDS011;40468;42.128;24.750;2022-10-30T00:42:10;13.57;;;4.80;;
32874;SDS011;40468;42.128;24.750;2022-10-30T00:43:43;14.23;;;5.07;;
32874;SDS011;40468;42.128;24.750;2022-10-30T00:45:15;10.57;;;5.47;;
32874;SDS011;40468;42.128;24.750;2022-10-30T00:46:47;11.48;;;5.45;;
32874;SDS011;40468;42.128;24.750;2022-10-30T00:48:20;12.52;;;5.55;;
32874;SDS011;40468;42.128;24.750;2022-10-30T00:49:56;12.75;;;4.95;;
32874;SDS011;40468;42.128;24.750;2022-10-30T00:51:31;12.70;;;5.63;;
32874;SDS011;40468;42.128;24.750;2022-10-30T00:53:04;12.85;;;5.22;;
32874;SDS011;40468;42.128;24.750;2022-10-30T00:54:37;14.68;;;5.45;;
32874;SDS011;40468;42.128;24.750;2022-10-30T00:56:09;9.25;;;4.85;;
32874;SDS011;40468;42.128;24.750;2022-10-30T00:57:42;8.70;;;5.00;;
32874;SDS011;40468;42.128;24.750;2022-10-30T00:59:15;9.57;;;4.70;;
32874;SDS011;40468;42.128;24.750;2022-10-30T01:00:50;12.18;;;4.95;;
32874;SDS011;40468;42.128;24.750;2022-10-30T01:02:25;13.73;;;5.43;;
32874;SDS011;40468;42.128;24.750;2022-10-30T01:03:59;11.38;;;5.35;;
32874;SDS011;40468;42.128;24.750;2022-10-30T01:05:33;15.68;;;5.72;;
32874;SDS011;40468;42.128;24.750;2022-10-30T01:07:06;9.10;;;5.38;;
32874;SDS011;40468;42.128;24.750;2022-10-30T01:08:40;11.45;;;6.60;;
32874;SDS011;40468;42.128;24.750;2022-10-30T01:10:14;12.82;;;5.97;;
32874;SDS011;40468;42.128;24.750;2022-10-30T01:11:46;14.23;;;6.10;;
32874;SDS011;40468;42.128;24.750;2022-10-30T01:13:19;14.25;;;5.97;;
32874;SDS011;40468;42.128;24.750;2022-10-30T01:14:53;11.45;;;6.05;;
32874;SDS011;40468;42.128;24.750;2022-10-30T01:16:42;14.23;;;6.63;;
32874;SDS011;40468;42.128;24.750;2022-10-30T01:18:27;10.70;;;5.63;;
32874;SDS011;40468;42.128;24.750;2022-10-30T01:20:10;14.63;;;5.85;;
32874;SDS011;40468;42.128;24.750;2022-10-30T01:21:53;11.77;;;5.57;;
32874;SDS011;40468;42.128;24.750;2022-10-30T01:23:37;12.68;;;5.40;;
32874;SDS011;40468;42.128;24.750;2022-10-30T01:25:23;10.95;;;5.43;;
32874;SDS011;40468;42.128;24.750;2022-10-30T01:27:10;9.95;;;4.93;;
32874;SDS011;40468;42.128;24.750;2022-10-30T01:28:56;13.10;;;5.00;;
32874;SDS011;40468;42.128;24.750;2022-10-30T01:30:40;11.38;;;5.30;;
32874;SDS011;40468;42.128;24.750;2022-10-30T01:32:20;17.60;;;5.47;;
32874;SDS011;40468;42.128;24.750;2022-10-30T01:34:09;11.70;;;4.88;;
32874;SDS011;40468;42.128;24.750;2022-10-30T01:35:51;10.82;;;5.07;;
32874;SDS011;40468;42.128;24.750;2022-10-30T01:37:30;13.40;;;5.15;;
32874;SDS011;40468;42.128;24.750;2022-10-30T01:39:06;11.50;;;5.07;;
32874;SDS011;40468;42.128;24.750;2022-10-30T01:40:42;12.90;;;5.30;;
32874;SDS011;40468;42.128;24.750;2022-10-30T01:44:05;10.52;;;4.85;;
32874;SDS011;40468;42.128;24.750;2022-10-30T01:45:45;10.45;;;5.40;;
32874;SDS011;40468;42.128;24.750;2022-10-30T01:47:32;12.90;;;4.38;;
32874;SDS011;40468;42.128;24.750;2022-10-30T01:49:22;13.13;;;4.45;;
32874;SDS011;40468;42.128;24.750;2022-10-30T01:51:10;10.30;;;4.95;;
32874;SDS011;40468;42.128;24.750;2022-10-30T01:52:48;10.88;;;5.32;;
32874;SDS011;40468;42.128;24.750;2022-10-30T01:54:29;15.27;;;4.97;;
32874;SDS011;40468;42.128;24.750;2022-10-30T01:56:12;9.65;;;4.55;;
32874;SDS011;40468;42.128;24.750;2022-10-30T01:57:51;9.70;;;4.88;;
32874;SDS011;40468;42.128;24.750;2022-10-30T01:59:28;11.23;;;4.63;;
32874;SDS011;40468;42.128;24.750;2022-10-30T02:01:03;10.20;;;5.07;;
32874;SDS011;40468;42.128;24.750;2022-10-30T02:02:35;11.07;;;4.87;;
32874;SDS011;40468;42.128;24.750;2022-10-30T02:04:08;10.07;;;4.60;;
32874;SDS011;40468;42.128;24.750;2022-10-30T02:05:43;10.60;;;4.85;;
32874;SDS011;40468;42.128;24.750;2022-10-30T02:07:20;8.90;;;4.55;;
32874;SDS011;40468;42.128;24.750;2022-10-30T02:08:53;12.73;;;4.97;;
32874;SDS011;40468;42.128;24.750;2022-10-30T02:10:26;9.68;;;5.03;;
32874;SDS011;40468;42.128;24.750;2022-10-30T02:12:00;10.05;;;4.10;;
32874;SDS011;40468;42.128;24.750;2022-10-30T02:13:33;12.65;;;5.50;;
32874;SDS011;40468;42.128;24.750;2022-10-30T02:15:05;9.82;;;5.00;;
32874;SDS011;40468;42.128;24.750;2022-10-30T02:16:37;12.98;;;5.13;;
32874;SDS011;40468;42.128;24.750;2022-10-30T02:18:15;8.60;;;4.47;;
32874;SDS011;40468;42.128;24.750;2022-10-30T02:19:47;8.85;;;4.93;;
32874;SDS011;40468;42.128;24.750;2022-10-30T02:21:20;8.90;;;4.68;;
32874;SDS011;40468;42.128;24.750;2022-10-30T02:22:52;9.77;;;5.18;;
32874;SDS011;40468;42.128;24.750;2022-10-30T02:24:24;14.20;;;5.30;;
32874;SDS011;40468;42.128;24.750;2022-10-30T02:25:56;9.40;;;5.15;;
32874;SDS011;40468;42.128;24.750;2022-10-30T02:27:27;11.00;;;5.22;;
32874;SDS011;40468;42.128;24.750;2022-10-30T02:28:59;12.98;;;5.45;;
32874;SDS011;40468;42.128;24.750;2022-10-30T02:30:31;12.95;;;5.85;;
32874;SDS011;40468;42.128;24.750;2022-10-30T02:32:03;9.73;;;5.13;;
32874;SDS011;40468;42.128;24.750;2022-10-30T02:33:34;12.13;;;5.13;;
32874;SDS011;40468;42.128;24.750;2022-10-30T02:35:06;10.85;;;5.47;;
32874;SDS011;40468;42.128;24.750;2022-10-30T02:36:40;16.65;;;5.82;;
32874;SDS011;40468;42.128;24.750;2022-10-30T02:38:12;12.40;;;5.38;;
32874;SDS011;40468;42.128;24.750;2022-10-30T02:39:43;11.85;;;5.03;;
32874;SDS011;40468;42.128;24.750;2022-10-30T02:41:15;10.65;;;5.45;;
32874;SDS011;40468;42.128;24.750;2022-10-30T02:42:50;11.55;;;4.72;;
32874;SDS011;40468;42.128;24.750;2022-10-30T02:44:22;13.55;;;4.90;;
32874;SDS011;40468;42.128;24.750;2022-10-30T02:45:54;12.77;;;5.15;;
32874;SDS011;40468;42.128;24.750;2022-10-30T02:47:27;11.32;;;5.20;;
32874;SDS011;40468;42.128;24.750;2022-10-30T02:48:59;9.05;;;4.95;;
32874;SDS011;40468;42.128;24.750;2022-10-30T02:50:32;8.93;;;4.55;;
32874;SDS011;40468;42.128;24.750;2022-10-30T02:52:06;12.05;;;5.10;;
32874;SDS011;40468;42.128;24.750;2022-10-30T02:53:38;17.45;;;5.97;;
32874;SDS011;40468;42.128;24.750;2022-10-30T02:55:10;10.65;;;5.00;;
32874;SDS011;40468;42.128;24.750;2022-10-30T02:56:42;14.88;;;4.53;;
32874;SDS011;40468;42.128;24.750;2022-10-30T02:58:14;13.40;;;5.03;;
32874;SDS011;40468;42.128;24.750;2022-10-30T02:59:45;13.30;;;5.30;;
32874;SDS011;40468;42.128;24.750;2022-10-30T03:01:17;13.15;;;4.90;;
32874;SDS011;40468;42.128;24.750;2022-10-30T03:02:53;11.10;;;5.22;;
32874;SDS011;40468;42.128;24.750;2022-10-30T03:04:25;13.48;;;5.25;;
32874;SDS011;40468;42.128;24.750;2022-10-30T03:05:58;12.60;;;5.03;;
32874;SDS011;40468;42.128;24.750;2022-10-30T03:07:31;11.55;;;5.35;;
32874;SDS011;40468;42.128;24.750;2022-10-30T03:09:03;10.57;;;4.70;;
32874;SDS011;40468;42.128;24.750;2022-10-30T03:10:34;14.35;;;5.10;;
32874;SDS011;40468;42.128;24.750;2022-10-30T03:12:06;16.02;;;5.63;;
32874;SDS011;40468;42.128;24.750;2022-10-30T03:13:37;14.43;;;4.85;;
32874;SDS011;40468;42.128;24.750;2022-10-30T03:15:10;10.25;;;5.47;;
32874;SDS011;40468;42.128;24.750;2022-10-30T03:16:42;12.30;;;5.07;;
32874;SDS011;40468;42.128;24.750;2022-10-30T03:18:14;13.32;;;5.20;;
32874;SDS011;40468;42.128;24.750;2022-10-30T03:19:46;11.52;;;5.43;;
32874;SDS011;40468;42.128;24.750;2022-10-30T03:21:18;13.15;;;6.63;;
32874;SDS011;40468;42.128;24.750;2022-10-30T03:22:52;16.13;;;6.57;;
32874;SDS011;40468;42.128;24.750;2022-10-30T03:24:24;13.98;;;7.15;;
32874;SDS011;40468;42.128;24.750;2022-10-30T03:25:56;9.55;;;5.28;;
32874;SDS011;40468;42.128;24.750;2022-10-30T03:27:28;13.00;;;5.78;;
32874;SDS011;40468;42.128;24.750;2022-10-30T03:29:00;10.52;;;5.40;;
32874;SDS011;40468;42.128;24.750;2022-10-30T03:30:32;13.07;;;5.68;;
32874;SDS011;40468;42.128;24.750;2022-10-30T03:32:07;9.23;;;5.68;;
32874;SDS011;40468;42.128;24.750;2022-10-30T03:33:39;14.50;;;5.80;;
32874;SDS011;40468;42.128;24.750;2022-10-30T03:35:11;14.00;;;5.93;;
32874;SDS011;40468;42.128;24.750;2022-10-30T03:36:43;11.68;;;5.75;;
32874;SDS011;40468;42.128;24.750;2022-10-30T03:38:17;12.32;;;5.30;;
32874;SDS011;40468;42.128;24.750;2022-10-30T03:39:48;10.52;;;5.50;;
32874;SDS011;40468;42.128;24.750;2022-10-30T03:41:20;12.65;;;5.13;;
32874;SDS011;40468;42.128;24.750;2022-10-30T03:42:52;12.50;;;4.80;;
32874;SDS011;40468;42.128;24.750;2022-10-30T03:44:23;13.30;;;5.18;;
32874;SDS011;40468;42.128;24.750;2022-10-30T03:45:55;13.02;;;5.65;;
32874;SDS011;40468;42.128;24.750;2022-10-30T03:47:26;13.07;;;5.90;;
32874;SDS011;40468;42.128;24.750;2022-10-30T03:48:58;12.18;;;5.50;;
32874;SDS011;40468;42.128;24.750;2022-10-30T03:50:30;14.43;;;5.30;;
32874;SDS011;40468;42.128;24.750;2022-10-30T03:52:02;12.25;;;5.85;;
32874;SDS011;40468;42.128;24.750;2022-10-30T03:53:36;14.35;;;5.68;;
32874;SDS011;40468;42.128;24.750;2022-10-30T03:55:08;13.73;;;5.78;;
32874;SDS011;40468;42.128;24.750;2022-10-30T03:56:38;11.52;;;5.35;;
32874;SDS011;40468;42.128;24.750;2022-10-30T03:58:10;13.18;;;6.40;;
32874;SDS011;40468;42.128;24.750;2022-10-30T03:59:41;12.18;;;5.80;;
32874;SDS011;40468;42.128;24.750;2022-10-30T04:01:13;13.38;;;6.03;;
32874;SDS011;40468;42.128;24.750;2022-10-30T04:02:45;15.38;;;6.30;;
32874;SDS011;40468;42.128;24.750;2022-10-30T04:04:16;12.38;;;6.18;;
32874;SDS011;40468;42.128;24.750;2022-10-30T04:05:49;13.65;;;5.93;;
32874;SDS011;40468;42.128;24.750;2022-10-30T04:07:23;13.70;;;6.07;;
32874;SDS011;40468;42.128;24.750;2022-10-30T04:08:56;15.23;;;5.60;;
32874;SDS011;40468;42.128;24.750;2022-10-30T04:10:28;12.73;;;5.88;;
32874;SDS011;40468;42.128;24.750;2022-10-30T04:11:59;11.65;;;6.07;;
32874;SDS011;40468;42.128;24.750;2022-10-30T04:13:31;10.07;;;5.50;;
32874;SDS011;40468;42.128;24.750;2022-10-30T04:15:03;14.02;;;5.85;;
32874;SDS011;40468;42.128;24.750;2022-10-30T04:16:35;12.20;;;5.73;;
32874;SDS011;40468;42.128;24.750;2022-10-30T04:18:08;12.45;;;6.68;;
32874;SDS011;40468;42.128;24.750;2022-10-30T04:19:41;15.38;;;6.32;;
32874;SDS011;40468;42.128;24.750;2022-10-30T04:21:12;13.50;;;6.30;;
32874;SDS011;40468;42.128;24.750;2022-10-30T04:22:44;11.05;;;6.28;;
32874;SDS011;40468;42.128;24.750;2022-10-30T04:24:16;12.30;;;5.95;;
32874;SDS011;40468;42.128;24.750;2022-10-30T04:25:48;13.43;;;5.68;;
32874;SDS011;40468;42.128;24.750;2022-10-30T04:27:20;13.93;;;6.13;;
32874;SDS011;40468;42.128;24.750;2022-10-30T04:28:51;13.55;;;6.22;;
32874;SDS011;40468;42.128;24.750;2022-10-30T04:30:23;14.35;;;6.00;;
32874;SDS011;40468;42.128;24.750;2022-10-30T04:31:56;13.00;;;5.53;;
32874;SDS011;40468;42.128;24.750;2022-10-30T04:33:28;14.07;;;5.82;;
32874;SDS011;40468;42.128;24.750;2022-10-30T04:35:00;18.80;;;6.57;;
32874;SDS011;40468;42.128;24.750;2022-10-30T04:36:30;15.57;;;6.55;;
32874;SDS011;40468;42.128;24.750;2022-10-30T04:38:03;12.63;;;5.78;;
32874;SDS011;40468;42.128;24.750;2022-10-30T04:39:37;12.32;;;5.95;;
32874;SDS011;40468;42.128;24.750;2022-10-30T04:41:09;12.35;;;5.68;;
32874;SDS011;40468;42.128;24.750;2022-10-30T04:42:41;9.23;;;5.03;;
32874;SDS011;40468;42.128;24.750;2022-10-30T04:44:12;11.50;;;5.57;;
32874;SDS011;40468;42.128;24.750;2022-10-30T04:45:43;9.55;;;5.80;;
32874;SDS011;40468;42.128;24.750;2022-10-30T04:47:15;11.98;;;5.50;;
32874;SDS011;40468;42.128;24.750;2022-10-30T04:48:46;14.02;;;5.60;;
32874;SDS011;40468;42.128;24.750;2022-10-30T04:50:18;16.45;;;5.75;;
32874;SDS011;40468;42.128;24.750;2022-10-30T04:51:50;12.80;;;5.97;;
32874;SDS011;40468;42.128;24.750;2022-10-30T04:53:22;15.07;;;5.88;;
32874;SDS011;40468;42.128;24.750;2022-10-30T04:54:55;14.27;;;6.15;;
32874;SDS011;40468;42.128;24.750;2022-10-30T04:56:26;12.48;;;5.80;;
32874;SDS011;40468;42.128;24.750;2022-10-30T04:57:58;12.63;;;5.55;;
32874;SDS011;40468;42.128;24.750;2022-10-30T04:59:32;14.88;;;6.05;;
32874;SDS011;40468;42.128;24.750;2022-10-30T05:01:04;11.70;;;5.57;;
32874;SDS011;40468;42.128;24.750;2022-10-30T05:02:36;11.95;;;5.15;;
32874;SDS011;40468;42.128;24.750;2022-10-30T05:04:08;12.57;;;5.28;;
32874;SDS011;40468;42.128;24.750;2022-10-30T05:05:40;11.27;;;4.97;;
32874;SDS011;40468;42.128;24.750;2022-10-30T05:07:12;13.05;;;5.45;;
32874;SDS011;40468;42.128;24.750;2022-10-30T05:08:44;12.63;;;5.93;;
32874;SDS011;40468;42.128;24.750;2022-10-30T05:10:17;12.10;;;4.82;;
32874;SDS011;40468;42.128;24.750;2022-10-30T05:11:49;10.23;;;4.88;;
32874;SDS011;40468;42.128;24.750;2022-10-30T05:13:21;12.73;;;5.15;;
32874;SDS011;40468;42.128;24.750;2022-10-30T05:14:53;12.45;;;4.72;;
32874;SDS011;40468;42.128;24.750;2022-10-30T05:16:25;12.68;;;5.32;;
32874;SDS011;40468;42.128;24.750;2022-10-30T05:17:57;15.35;;;5.65;;
32874;SDS011;40468;42.128;24.750;2022-10-30T05:19:29;10.13;;;5.38;;
32874;SDS011;40468;42.128;24.750;2022-10-30T05:21:01;13.30;;;5.20;;
32874;SDS011;40468;42.128;24.750;2022-10-30T05:22:32;14.00;;;6.07;;
32874;SDS011;40468;42.128;24.750;2022-10-30T05:24:04;17.35;;;5.95;;
32874;SDS011;40468;42.128;24.750;2022-10-30T05:25:38;14.48;;;5.72;;
32874;SDS011;40468;42.128;24.750;2022-10-30T05:27:10;13.27;;;6.18;;
32874;SDS011;40468;42.128;24.750;2022-10-30T05:28:41;10.73;;;5.32;;
32874;SDS011;40468;42.128;24.750;2022-10-30T05:30:13;13.75;;;5.47;;
32874;SDS011;40468;42.128;24.750;2022-10-30T05:31:45;9.25;;;4.65;;
32874;SDS011;40468;42.128;24.750;2022-10-30T05:33:15;11.48;;;5.57;;
32874;SDS011;40468;42.128;24.750;2022-10-30T05:34:47;13.75;;;5.25;;
32874;SDS011;40468;42.128;24.750;2022-10-30T05:36:19;13.77;;;5.50;;
32874;SDS011;40468;42.128;24.750;2022-10-30T05:37:51;11.00;;;4.57;;
32874;SDS011;40468;42.128;24.750;2022-10-30T05:39:23;9.15;;;5.28;;
32874;SDS011;40468;42.128;24.750;2022-10-30T05:40:56;11.45;;;5.50;;
32874;SDS011;40468;42.128;24.750;2022-10-30T05:42:28;24.55;;;5.75;;
32874;SDS011;40468;42.128;24.750;2022-10-30T05:44:00;11.07;;;5.20;;
32874;SDS011;40468;42.128;24.750;2022-10-30T05:45:32;15.13;;;5.38;;
32874;SDS011;40468;42.128;24.750;2022-10-30T05:47:04;15.85;;;5.70;;
32874;SDS011;40468;42.128;24.750;2022-10-30T05:48:34;12.05;;;4.80;;
32874;SDS011;40468;42.128;24.750;2022-10-30T05:50:07;13.95;;;4.95;;
32874;SDS011;40468;42.128;24.750;2022-10-30T05:51:39;14.68;;;5.32;;
32874;SDS011;40468;42.128;24.750;2022-10-30T05:53:10;18.33;;;5.95;;
32874;SDS011;40468;42.128;24.750;2022-10-30T05:54:42;14.95;;;7.07;;
32874;SDS011;40468;42.128;24.750;2022-10-30T05:56:15;14.82;;;6.38;;
32874;SDS011;40468;42.128;24.750;2022-10-30T05:57:47;14.48;;;6.22;;
32874;SDS011;40468;42.128;24.750;2022-10-30T05:59:17;12.65;;;6.32;;
32874;SDS011;40468;42.128;24.750;2022-10-30T06:00:49;16.25;;;6.65;;
32874;SDS011;40468;42.128;24.750;2022-10-30T06:02:21;13.13;;;6.20;;
32874;SDS011;40468;42.128;24.750;2022-10-30T06:03:53;18.00;;;6.10;;
32874;SDS011;40468;42.128;24.750;2022-10-30T06:05:25;17.38;;;6.70;;
32874;SDS011;40468;42.128;24.750;2022-10-30T06:06:57;18.23;;;6.43;;
32874;SDS011;40468;42.128;24.750;2022-10-30T06:08:28;17.50;;;6.35;;
32874;SDS011;40468;42.128;24.750;2022-10-30T06:09:59;13.38;;;5.82;;
32874;SDS011;40468;42.128;24.750;2022-10-30T06:11:32;15.55;;;6.53;;
32874;SDS011;40468;42.128;24.750;2022-10-30T06:13:05;12.57;;;5.47;;
32874;SDS011;40468;42.128;24.750;2022-10-30T06:14:37;16.00;;;5.18;;
32874;SDS011;40468;42.128;24.750;2022-10-30T06:16:09;13.50;;;5.28;;
32874;SDS011;40468;42.128;24.750;2022-10-30T06:17:41;10.45;;;5.35;;
32874;SDS011;40468;42.128;24.750;2022-10-30T06:19:13;20.60;;;5.30;;
32874;SDS011;40468;42.128;24.750;2022-10-30T06:20:44;14.20;;;5.13;;
32874;SDS011;40468;42.128;24.750;2022-10-30T06:22:16;13.35;;;5.35;;
32874;SDS011;40468;42.128;24.750;2022-10-30T06:23:48;15.32;;;5.90;;
32874;SDS011;40468;42.128;24.750;2022-10-30T06:25:22;15.38;;;5.85;;
32874;SDS011;40468;42.128;24.750;2022-10-30T06:26:56;21.52;;;4.90;;
32874;SDS011;40468;42.128;24.750;2022-10-30T06:28:28;9.43;;;4.60;;
32874;SDS011;40468;42.128;24.750;2022-10-30T06:30:00;9.10;;;4.30;;
32874;SDS011;40468;42.128;24.750;2022-10-30T06:31:32;9.13;;;3.92;;
32874;SDS011;40468;42.128;24.750;2022-10-30T06:33:04;12.35;;;4.30;;
32874;SDS011;40468;42.128;24.750;2022-10-30T06:34:36;15.18;;;4.60;;
32874;SDS011;40468;42.128;24.750;2022-10-30T06:36:08;9.18;;;4.35;;
32874;SDS011;40468;42.128;24.750;2022-10-30T06:37:43;9.13;;;3.88;;
32874;SDS011;40468;42.128;24.750;2022-10-30T06:39:15;9.50;;;4.32;;
32874;SDS011;40468;42.128;24.750;2022-10-30T06:40:47;9.98;;;4.05;;
32874;SDS011;40468;42.128;24.750;2022-10-30T06:42:20;11.30;;;4.50;;
32874;SDS011;40468;42.128;24.750;2022-10-30T06:43:52;6.75;;;3.80;;
32874;SDS011;40468;42.128;24.750;2022-10-30T06:45:24;8.27;;;3.83;;
32874;SDS011;40468;42.128;24.750;2022-10-30T06:46:56;11.32;;;4.82;;
32874;SDS011;40468;42.128;24.750;2022-10-30T06:48:28;12.25;;;4.47;;
32874;SDS011;40468;42.128;24.750;2022-10-30T06:50:00;7.20;;;4.15;;
32874;SDS011;40468;42.128;24.750;2022-10-30T06:51:32;11.23;;;4.97;;
32874;SDS011;40468;42.128;24.750;2022-10-30T06:53:04;8.43;;;4.70;;
32874;SDS011;40468;42.128;24.750;2022-10-30T06:54:36;8.77;;;4.45;;
32874;SDS011;40468;42.128;24.750;2022-10-30T06:56:07;12.00;;;4.53;;
32874;SDS011;40468;42.128;24.750;2022-10-30T06:57:41;10.68;;;4.20;;
32874;SDS011;40468;42.128;24.750;2022-10-30T07:00:44;14.75;;;5.15;;
32874;SDS011;40468;42.128;24.750;2022-10-30T07:02:16;7.10;;;4.68;;
32874;SDS011;40468;42.128;24.750;2022-10-30T07:03:48;8.80;;;4.60;;
32874;SDS011;40468;42.128;24.750;2022-10-30T07:05:19;10.07;;;4.50;;
32874;SDS011;40468;42.128;24.750;2022-10-30T07:06:51;10.23;;;4.60;;
32874;SDS011;40468;42.128;24.750;2022-10-30T07:08:23;8.77;;;4.07;;
32874;SDS011;40468;42.128;24.750;2022-10-30T07:09:55;9.02;;;3.78;;
32874;SDS011;40468;42.128;24.750;2022-10-30T07:11:27;6.28;;;3.42;;
32874;SDS011;40468;42.128;24.750;2022-10-30T07:13:00;10.55;;;3.53;;
32874;SDS011;40468;42.128;24.750;2022-10-30T07:16:04;7.47;;;4.00;;
32874;SDS011;40468;42.128;24.750;2022-10-30T07:17:36;14.43;;;3.37;;
32874;SDS011;40468;42.128;24.750;2022-10-30T07:19:08;7.55;;;4.10;;
32874;SDS011;40468;42.128;24.750;2022-10-30T07:20:40;8.13;;;3.55;;
32874;SDS011;40468;42.128;24.750;2022-10-30T07:22:12;7.50;;;3.97;;
32874;SDS011;40468;42.128;24.750;2022-10-30T07:23:43;12.45;;;3.88;;
32874;SDS011;40468;42.128;24.750;2022-10-30T07:25:15;10.27;;;3.83;;
32874;SDS011;40468;42.128;24.750;2022-10-30T07:26:47;7.50;;;4.10;;
32874;SDS011;40468;42.128;24.750;2022-10-30T07:28:21;9.07;;;3.70;;
32874;SDS011;40468;42.128;24.750;2022-10-30T07:29:52;7.10;;;3.92;;
32874;SDS011;40468;42.128;24.750;2022-10-30T07:31:24;7.00;;;3.55;;
32874;SDS011;40468;42.128;24.750;2022-10-30T07:32:57;7.68;;;4.00;;
32874;SDS011;40468;42.128;24.750;2022-10-30T07:34:30;8.52;;;4.05;;
32874;SDS011;40468;42.128;24.750;2022-10-30T07:36:03;7.70;;;4.20;;
32874;SDS011;40468;42.128;24.750;2022-10-30T07:37:36;13.75;;;4.53;;
32874;SDS011;40468;42.128;24.750;2022-10-30T07:39:07;13.65;;;3.85;;
32874;SDS011;40468;42.128;24.750;2022-10-30T07:40:39;12.10;;;4.28;;
32874;SDS011;40468;42.128;24.750;2022-10-30T07:42:11;8.25;;;4.22;;
32874;SDS011;40468;42.128;24.750;2022-10-30T07:43:44;13.13;;;3.72;;
32874;SDS011;40468;42.128;24.750;2022-10-30T07:45:16;9.02;;;3.97;;
32874;SDS011;40468;42.128;24.750;2022-10-30T07:46:48;6.97;;;4.25;;
32874;SDS011;40468;42.128;24.750;2022-10-30T07:48:20;7.60;;;4.60;;
32874;SDS011;40468;42.128;24.750;2022-10-30T07:49:52;7.32;;;4.15;;
32874;SDS011;40468;42.128;24.750;2022-10-30T07:51:23;10.10;;;4.28;;
32874;SDS011;40468;42.128;24.750;2022-10-30T07:52:55;6.38;;;3.42;;
32874;SDS011;40468;42.128;24.750;2022-10-30T07:54:27;6.65;;;4.13;;
32874;SDS011;40468;42.128;24.750;2022-10-30T07:55:59;9.68;;;4.40;;
32874;SDS011;40468;42.128;24.750;2022-10-30T07:57:33;8.18;;;3.97;;
32874;SDS011;40468;42.128;24.750;2022-10-30T07:59:07;5.97;;;4.10;;
32874;SDS011;40468;42.128;24.750;2022-10-30T08:00:39;5.75;;;3.47;;
32874;SDS011;40468;42.128;24.750;2022-10-30T08:02:11;8.07;;;3.97;;
32874;SDS011;40468;42.128;24.750;2022-10-30T08:03:43;9.85;;;3.83;;
32874;SDS011;40468;42.128;24.750;2022-10-30T08:05:15;6.57;;;3.92;;
32874;SDS011;40468;42.128;24.750;2022-10-30T08:06:48;12.70;;;4.13;;
32874;SDS011;40468;42.128;24.750;2022-10-30T08:08:19;12.82;;;4.15;;
32874;SDS011;40468;42.128;24.750;2022-10-30T08:09:51;9.10;;;4.25;;
32874;SDS011;40468;42.128;24.750;2022-10-30T08:11:23;7.82;;;4.13;;
32874;SDS011;40468;42.128;24.750;2022-10-30T08:12:55;11.38;;;4.05;;
32874;SDS011;40468;42.128;24.750;2022-10-30T08:14:28;6.63;;;4.00;;
32874;SDS011;40468;42.128;24.750;2022-10-30T08:16:00;7.20;;;4.03;;
32874;SDS011;40468;42.128;24.750;2022-10-30T08:17:32;14.52;;;4.18;;
32874;SDS011;40468;42.128;24.750;2022-10-30T08:19:04;9.75;;;4.22;;
32874;SDS011;40468;42.128;24.750;2022-10-30T08:20:36;11.07;;;4.57;;
32874;SDS011;40468;42.128;24.750;2022-10-30T08:22:07;11.57;;;4.38;;
32874;SDS011;40468;42.128;24.750;2022-10-30T08:23:41;5.80;;;4.30;;
32874;SDS011;40468;42.128;24.750;2022-10-30T08:25:13;10.80;;;4.32;;
32874;SDS011;40468;42.128;24.750;2022-10-30T08:26:45;9.45;;;4.47;;
32874;SDS011;40468;42.128;24.750;2022-10-30T08:28:17;7.80;;;3.78;;
32874;SDS011;40468;42.128;24.750;2022-10-30T08:29:50;6.88;;;3.92;;
32874;SDS011;40468;42.128;24.750;2022-10-30T08:32:55;21.98;;;4.38;;
32874;SDS011;40468;42.128;24.750;2022-10-30T08:34:28;17.38;;;4.28;;
32874;SDS011;40468;42.128;24.750;2022-10-30T08:36:03;9.02;;;3.60;;
32874;SDS011;40468;42.128;24.750;2022-10-30T08:37:36;10.48;;;3.85;;
32874;SDS011;40468;42.128;24.750;2022-10-30T08:39:08;8.55;;;3.40;;
32874;SDS011;40468;42.128;24.750;2022-10-30T08:40:40;10.07;;;3.30;;
32874;SDS011;40468;42.128;24.750;2022-10-30T08:42:12;8.18;;;3.78;;
32874;SDS011;40468;42.128;24.750;2022-10-30T08:43:44;9.15;;;4.15;;
32874;SDS011;40468;42.128;24.750;2022-10-30T08:45:17;12.35;;;3.60;;
32874;SDS011;40468;42.128;24.750;2022-10-30T08:46:49;8.80;;;3.70;;
32874;SDS011;40468;42.128;24.750;2022-10-30T08:48:21;7.53;;;3.50;;
32874;SDS011;40468;42.128;24.750;2022-10-30T08:49:53;7.20;;;3.55;;
32874;SDS011;40468;42.128;24.750;2022-10-30T08:51:25;7.93;;;3.53;;
32874;SDS011;40468;42.128;24.750;2022-10-30T08:52:58;8.95;;;3.35;;
32874;SDS011;40468;42.128;24.750;2022-10-30T08:54:30;5.78;;;3.45;;
32874;SDS011;40468;42.128;24.750;2022-10-30T08:56:02;10.55;;;4.50;;
32874;SDS011;40468;42.128;24.750;2022-10-30T08:57:35;11.50;;;3.55;;
32874;SDS011;40468;42.128;24.750;2022-10-30T08:59:07;8.02;;;3.00;;
32874;SDS011;40468;42.128;24.750;2022-10-30T09:00:40;10.88;;;3.70;;
32874;SDS011;40468;42.128;24.750;2022-10-30T09:03:43;6.32;;;3.20;;
32874;SDS011;40468;42.128;24.750;2022-10-30T09:05:15;12.73;;;4.28;;
32874;SDS011;40468;42.128;24.750;2022-10-30T09:06:47;10.00;;;3.60;;
32874;SDS011;40468;42.128;24.750;2022-10-30T09:08:19;9.40;;;3.35;;
32874;SDS011;40468;42.128;24.750;2022-10-30T09:09:51;7.38;;;2.83;;
32874;SDS011;40468;42.128;24.750;2022-10-30T09:11:23;16.75;;;3.10;;
32874;SDS011;40468;42.128;24.750;2022-10-30T09:12:55;9.02;;;4.15;;
32874;SDS011;40468;42.128;24.750;2022-10-30T09:14:27;8.35;;;3.30;;